createdAt,value
2023-05-19T00:01:15.110Z,99070.50
2023-05-19T00:03:52.630Z,99068.28
2023-05-19T00:06:25.071Z,99065.06
2023-05-19T00:08:57.792Z,99066.47
2023-05-19T00:11:26.470Z,99059.16
2023-05-19T00:13:58.387Z,99067.03
2023-05-19T00:16:26.468Z,99055.28
2023-05-19T00:18:54.112Z,99056.22
2023-05-19T00:21:21.243Z,99057.03
2023-05-19T00:23:47.851Z,99056.22
2023-05-19T00:26:15.575Z,99055.72
2023-05-19T00:28:42.037Z,99056.03
2023-05-19T00:31:08.462Z,99060.56
2023-05-19T00:33:34.903Z,99060.06
2023-05-19T00:36:05.690Z,99056.09
2023-05-19T00:38:34.661Z,99055.84
2023-05-19T00:41:02.270Z,99052.88
2023-05-19T00:43:30.196Z,99050.94
2023-05-19T00:45:57.464Z,99046.31
2023-05-19T00:48:25.679Z,99047.69
2023-05-19T00:50:54.725Z,99039.19
2023-05-19T00:53:23.064Z,99050.13
2023-05-19T00:55:50.442Z,99043.88
2023-05-19T00:58:18.623Z,99042.53
2023-05-19T01:00:45.774Z,99043.66
2023-05-19T01:03:12.425Z,99043.56
2023-05-19T01:05:41.638Z,99037.34
2023-05-19T01:08:09.101Z,99032.69
2023-05-19T01:10:35.880Z,99035.94
2023-05-19T01:13:04.599Z,99034.19
2023-05-19T01:15:37.727Z,99034.69
2023-05-19T01:18:19.522Z,99046.06
2023-05-19T01:20:59.273Z,99033.38
2023-05-19T01:23:38.034Z,99027.41
2023-05-19T01:26:28.807Z,99036.47
2023-05-19T01:29:13.923Z,99045.19
2023-05-19T01:31:42.616Z,99046.31
2023-05-19T01:34:12.136Z,99058.28
2023-05-19T01:36:41.246Z,99048.22
2023-05-19T01:39:08.065Z,99054.97
2023-05-19T01:41:35.012Z,99046.81
2023-05-19T01:44:02.424Z,99051.44
2023-05-19T01:46:28.956Z,99051.16
2023-05-19T01:48:56.139Z,99050.63
2023-05-19T01:51:22.620Z,99052.34
2023-05-19T01:53:49.145Z,99055.06
2023-05-19T01:56:22.107Z,99044.75
2023-05-19T01:58:56.900Z,99048.78
2023-05-19T02:01:46.490Z,99047.78
2023-05-19T02:04:35.817Z,99048.97
2023-05-19T02:07:12.384Z,99050.69
2023-05-19T02:10:04.717Z,99050.47
2023-05-19T02:12:40.744Z,99044.59
2023-05-19T02:15:14.430Z,99052.44
2023-05-19T02:17:47.652Z,99050.38
2023-05-19T02:20:15.554Z,99048.00
2023-05-19T02:22:42.067Z,99048.34
2023-05-19T02:25:09.442Z,99056.00
2023-05-19T02:27:36.854Z,99059.22
2023-05-19T02:30:08.334Z,99052.16
2023-05-19T02:32:36.341Z,99057.59
2023-05-19T02:35:03.953Z,99054.28
2023-05-19T02:37:31.130Z,99050.22
2023-05-19T02:39:57.708Z,99051.84
2023-05-19T02:42:24.248Z,99053.75
2023-05-19T02:44:50.777Z,99049.44
2023-05-19T02:47:17.223Z,99050.09
2023-05-19T02:49:44.244Z,99049.63
2023-05-19T02:52:12.023Z,99060.47
2023-05-19T02:54:38.535Z,99053.44
2023-05-19T02:57:05.377Z,99047.16
2023-05-19T02:59:32.118Z,99036.63
2023-05-19T03:02:02.282Z,99036.16
2023-05-19T03:04:29.847Z,99035.69
2023-05-19T03:06:57.340Z,99037.88
2023-05-19T03:09:23.964Z,99033.56
2023-05-19T03:11:50.413Z,99039.56
2023-05-19T03:14:18.537Z,99030.38
2023-05-19T03:16:45.212Z,99024.97
2023-05-19T03:19:12.101Z,99028.25
2023-05-19T03:21:38.503Z,99033.13
2023-05-19T03:24:05.291Z,99039.63
2023-05-19T03:26:31.677Z,99035.06
2023-05-19T03:28:58.215Z,99031.31
2023-05-19T03:31:24.716Z,99026.41
2023-05-19T03:33:51.176Z,99033.13
2023-05-19T03:36:17.863Z,99030.38
2023-05-19T03:38:44.312Z,99036.28
2023-05-19T03:41:10.717Z,99038.69
2023-05-19T03:43:37.183Z,99039.50
2023-05-19T03:46:03.823Z,99042.75
2023-05-19T03:48:30.402Z,99038.94
2023-05-19T03:50:57.901Z,99035.94
2023-05-19T03:53:24.379Z,99033.50
2023-05-19T03:55:50.994Z,99042.97
2023-05-19T03:58:17.416Z,99042.47
2023-05-19T04:00:43.890Z,99048.69
2023-05-19T04:03:10.785Z,99045.72
2023-05-19T04:05:37.421Z,99051.97
2023-05-19T04:08:03.944Z,99053.06
2023-05-19T04:10:30.957Z,99047.41
2023-05-19T04:12:57.559Z,99061.00
2023-05-19T04:15:24.350Z,99048.78
2023-05-19T04:17:50.922Z,99053.13
2023-05-19T04:20:17.471Z,99056.41
2023-05-19T04:22:43.965Z,99058.31
2023-05-19T04:25:10.452Z,99059.13
2023-05-19T04:27:38.983Z,99061.31
2023-05-19T04:30:06.488Z,99058.88
2023-05-19T04:32:33.204Z,99060.25
2023-05-19T04:34:59.902Z,99060.81
2023-05-19T04:37:26.593Z,99058.13
2023-05-19T04:39:54.233Z,99061.13
2023-05-19T04:42:21.001Z,99063.00
2023-05-19T04:44:49.423Z,99064.56
2023-05-19T04:47:16.186Z,99065.03
2023-05-19T04:49:42.978Z,99060.88
2023-05-19T04:52:10.929Z,99064.94
2023-05-19T04:54:38.889Z,99065.97
2023-05-19T04:57:05.938Z,99073.50
2023-05-19T04:59:33.040Z,99069.19
2023-05-19T05:01:59.707Z,99068.06
2023-05-19T05:04:26.215Z,99074.28
2023-05-19T05:06:52.630Z,99067.94
2023-05-19T05:09:19.997Z,99072.75
2023-05-19T05:11:46.879Z,99073.25
2023-05-19T05:14:13.683Z,99076.47
2023-05-19T05:16:40.769Z,99064.81
2023-05-19T05:19:07.616Z,99065.31
2023-05-19T05:21:34.700Z,99066.88
2023-05-19T05:24:01.462Z,99063.78
2023-05-19T05:26:31.553Z,99056.03
2023-05-19T05:28:58.064Z,99062.28
2023-05-19T05:31:24.599Z,99054.75
2023-05-19T05:33:51.162Z,99065.84
2023-05-19T05:36:17.724Z,99061.69
2023-05-19T05:38:44.255Z,99060.75
2023-05-19T05:41:10.793Z,99053.81
2023-05-19T05:43:37.226Z,99060.84
2023-05-19T05:46:03.835Z,99061.22
2023-05-19T05:48:30.603Z,99062.72
2023-05-19T05:50:58.009Z,99072.03
2023-05-19T05:53:26.657Z,99071.53
2023-05-19T05:55:53.593Z,99062.19
2023-05-19T05:58:22.305Z,99065.88
2023-05-19T06:00:49.312Z,99074.91
2023-05-19T06:03:16.903Z,99076.38
2023-05-19T06:05:43.527Z,99065.56
2023-05-19T06:08:10.036Z,99070.25
2023-05-19T06:10:38.651Z,99063.56
2023-05-19T06:13:05.248Z,99070.88
2023-05-19T06:15:31.767Z,99073.44
2023-05-19T06:17:58.925Z,99068.09
2023-05-19T06:20:25.409Z,99063.63
2023-05-19T06:22:53.058Z,99062.44
2023-05-19T06:25:20.576Z,99062.94
2023-05-19T06:27:47.146Z,99052.31
2023-05-19T06:30:13.895Z,99058.28
2023-05-19T06:32:40.617Z,99047.56
2023-05-19T06:35:07.592Z,99053.94
2023-05-19T06:37:34.019Z,99041.75
2023-05-19T06:40:00.541Z,99047.78
2023-05-19T06:42:27.030Z,99048.50
2023-05-19T06:44:53.537Z,99045.91
2023-05-19T06:47:21.874Z,99051.78
2023-05-19T06:49:51.872Z,99050.19
2023-05-19T06:52:20.059Z,99045.97
2023-05-19T06:54:46.465Z,99048.72
2023-05-19T06:57:12.957Z,99048.31
2023-05-19T06:59:41.173Z,99045.81
2023-05-19T07:02:08.139Z,99049.72
2023-05-19T07:04:36.223Z,99055.88
2023-05-19T07:07:03.246Z,99044.34
2023-05-19T07:09:29.704Z,99048.63
2023-05-19T07:11:56.448Z,99049.50
2023-05-19T07:14:23.380Z,99049.84
2023-05-19T07:16:49.942Z,99042.53
2023-05-19T07:19:16.627Z,99049.09
2023-05-19T07:21:43.427Z,99051.53
2023-05-19T07:24:09.895Z,99052.75
2023-05-19T07:26:36.397Z,99045.88
2023-05-19T07:29:03.984Z,99051.34
2023-05-19T07:31:30.617Z,99048.91
2023-05-19T07:33:57.245Z,99045.91
2023-05-19T07:36:23.804Z,99043.59
2023-05-19T07:38:50.442Z,99037.97
2023-05-19T07:41:16.961Z,99045.75
2023-05-19T07:43:43.506Z,99034.88
2023-05-19T07:46:10.049Z,99034.63
2023-05-19T07:48:37.347Z,99039.97
2023-05-19T07:51:03.976Z,99035.22
2023-05-19T07:53:30.785Z,99033.59
2023-05-19T07:55:58.681Z,99028.31
2023-05-19T07:58:25.669Z,99026.59
2023-05-19T08:00:53.299Z,99033.97
2023-05-19T08:03:20.870Z,99027.03
2023-05-19T08:05:47.650Z,99027.94
2023-05-19T08:08:16.722Z,99031.41
2023-05-19T08:10:44.545Z,99030.22
2023-05-19T08:13:11.005Z,99027.00
2023-05-19T08:15:37.799Z,99021.34
2023-05-19T08:18:05.193Z,99020.53
2023-05-19T08:20:32.690Z,99019.31
2023-05-19T08:22:59.840Z,99013.22
2023-05-19T08:25:26.272Z,99021.13
2023-05-19T08:27:52.752Z,99020.28
2023-05-19T08:30:19.495Z,99013.91
2023-05-19T08:32:46.449Z,99012.63
2023-05-19T08:35:12.967Z,99003.47
2023-05-19T08:37:39.428Z,99010.59
2023-05-19T08:40:07.148Z,99001.44
2023-05-19T08:42:33.899Z,99006.31
2023-05-19T08:45:01.616Z,99002.56
2023-05-19T08:47:28.735Z,99015.25
2023-05-19T08:50:07.783Z,99001.44
2023-05-19T08:52:37.281Z,99005.88
2023-05-19T08:55:17.081Z,99012.00
2023-05-19T08:57:43.844Z,99006.25
2023-05-19T09:00:12.285Z,99008.22
2023-05-19T09:02:50.383Z,98999.69
2023-05-19T09:05:26.448Z,99011.25
2023-05-19T09:07:52.965Z,99005.91
2023-05-19T09:10:19.666Z,98995.69
2023-05-19T09:12:47.718Z,99000.34
2023-05-19T09:15:18.767Z,98996.94
2023-05-19T09:17:47.971Z,99002.25
2023-05-19T09:20:16.772Z,99001.75
2023-05-19T09:22:47.427Z,99000.34
2023-05-19T09:25:23.969Z,99001.13
2023-05-19T09:27:50.717Z,99002.38
2023-05-19T09:30:19.213Z,99001.22
2023-05-19T09:32:49.053Z,99002.63
2023-05-19T09:35:21.194Z,98999.59
2023-05-19T09:37:48.241Z,98994.50
2023-05-19T09:40:15.794Z,98984.06
2023-05-19T09:42:43.985Z,98990.22
2023-05-19T09:45:13.198Z,98993.47
2023-05-19T09:47:41.440Z,98994.59
2023-05-19T09:50:10.255Z,99000.78
2023-05-19T09:52:38.650Z,98994.44
2023-05-19T09:55:08.830Z,98987.72
2023-05-19T09:57:39.999Z,98982.63
2023-05-19T10:00:17.861Z,98993.78
2023-05-19T10:02:48.229Z,98986.03
2023-05-19T10:05:20.479Z,98989.44
2023-05-19T10:07:51.397Z,98985.53
2023-05-19T10:10:20.754Z,98986.09
2023-05-19T10:12:48.474Z,98987.63
2023-05-19T10:15:29.509Z,98985.03
2023-05-19T10:17:56.587Z,98988.88
2023-05-19T10:20:23.206Z,98985.03
2023-05-19T10:22:49.721Z,98982.63
2023-05-19T10:25:18.611Z,98983.41
2023-05-19T10:27:57.766Z,98979.38
2023-05-19T10:30:32.336Z,98982.78
2023-05-19T10:33:03.232Z,98979.25
2023-05-19T10:35:57.669Z,98980.53
2023-05-19T10:38:33.474Z,98982.78
2023-05-19T10:41:12.930Z,98985.56
2023-05-19T10:44:16.682Z,98979.88
2023-05-19T10:46:43.319Z,98975.25
2023-05-19T10:49:11.245Z,98970.13
2023-05-19T10:51:37.864Z,98976.94
2023-05-19T10:54:14.336Z,98964.72
2023-05-19T10:56:47.162Z,98960.50
2023-05-19T10:59:34.635Z,98967.91
2023-05-19T11:02:05.426Z,98972.69
2023-05-19T11:04:52.224Z,98969.69
2023-05-19T11:07:21.531Z,98969.34
2023-05-19T11:09:54.591Z,98965.81
2023-05-19T11:12:24.754Z,98974.00
2023-05-19T11:14:59.326Z,98966.47
2023-05-19T11:17:27.432Z,98971.06
2023-05-19T11:19:55.227Z,98972.25
2023-05-19T11:22:28.230Z,98969.84
2023-05-19T11:24:55.565Z,98969.03
2023-05-19T11:27:38.170Z,98969.97
2023-05-19T11:30:09.343Z,98972.84
2023-05-19T11:32:39.677Z,98968.91
2023-05-19T11:35:07.875Z,98968.34
2023-05-19T11:37:34.948Z,98961.13
2023-05-19T11:40:02.444Z,98972.84
2023-05-19T11:42:29.000Z,98968.34
2023-05-19T11:44:56.184Z,98959.03
2023-05-19T11:47:22.820Z,98965.47
2023-05-19T11:49:51.851Z,98970.13
2023-05-19T11:52:22.122Z,98957.41
2023-05-19T11:54:49.148Z,98961.81
2023-05-19T11:57:15.788Z,98959.16
2023-05-19T11:59:46.955Z,98959.69
2023-05-19T12:02:16.421Z,98953.91
2023-05-19T12:04:43.401Z,98946.03
2023-05-19T12:07:12.143Z,98951.19
2023-05-19T12:09:38.718Z,98946.03
2023-05-19T12:12:05.740Z,98944.31
2023-05-19T12:14:32.291Z,98944.16
2023-05-19T12:16:59.382Z,98938.84
2023-05-19T12:19:26.486Z,98947.19
2023-05-19T12:21:53.956Z,98943.81
2023-05-19T12:24:21.777Z,98946.69
2023-05-19T12:26:50.212Z,98939.75
2023-05-19T12:29:16.717Z,98946.81
2023-05-19T12:31:46.758Z,98942.63
2023-05-19T12:34:13.330Z,98951.47
2023-05-19T12:36:43.115Z,98951.59
2023-05-19T12:39:09.726Z,98961.41
2023-05-19T12:41:36.185Z,98958.75
2023-05-19T12:44:14.396Z,98953.28
2023-05-19T12:46:40.906Z,98950.34
2023-05-19T12:49:07.425Z,98953.41
2023-05-19T12:51:34.029Z,98961.28
2023-05-19T12:54:03.339Z,98953.56
2023-05-19T12:56:29.824Z,98948.59
2023-05-19T12:58:56.502Z,98953.91
2023-05-19T13:01:24.109Z,98951.19
2023-05-19T13:03:51.063Z,98953.91
2023-05-19T13:06:17.883Z,98954.44
2023-05-19T13:08:47.334Z,98951.88
2023-05-19T13:11:13.919Z,98950.63
2023-05-19T13:13:40.396Z,98952.41
2023-05-19T13:16:07.029Z,98944.34
2023-05-19T13:18:35.349Z,98946.59
2023-05-19T13:21:01.833Z,98951.06
2023-05-19T13:23:28.277Z,98939.94
2023-05-19T13:25:54.830Z,98939.75
2023-05-19T13:28:21.418Z,98934.75
2023-05-19T13:30:49.510Z,98932.16
2023-05-19T13:33:16.119Z,98937.13
2023-05-19T13:35:42.649Z,98929.59
2023-05-19T13:38:10.648Z,98924.41
2023-05-19T13:40:38.114Z,98926.34
2023-05-19T13:43:04.921Z,98923.59
2023-05-19T13:45:31.507Z,98931.50
2023-05-19T13:47:58.252Z,98924.94
2023-05-19T13:50:24.847Z,98921.53
2023-05-19T13:52:51.256Z,98923.66
2023-05-19T13:55:17.933Z,98925.63
2023-05-19T13:57:44.907Z,98927.41
2023-05-19T14:00:11.754Z,98922.34
2023-05-19T14:02:38.330Z,98909.97
2023-05-19T14:05:06.126Z,98921.59
2023-05-19T14:07:34.722Z,98914.84
2023-05-19T14:10:02.574Z,98916.00
2023-05-19T14:12:38.134Z,98914.53
2023-05-19T14:15:14.134Z,98913.09
2023-05-19T14:17:40.630Z,98905.69
2023-05-19T14:20:07.745Z,98910.53
2023-05-19T14:22:34.248Z,98900.72
2023-05-19T14:25:01.688Z,98903.44
2023-05-19T14:27:28.260Z,98896.38
2023-05-19T14:29:54.716Z,98898.59
2023-05-19T14:32:21.735Z,98888.66
2023-05-19T14:34:48.333Z,98903.09
2023-05-19T14:37:14.818Z,98891.03
2023-05-19T14:39:41.403Z,98896.97
2023-05-19T14:42:09.365Z,98898.41
2023-05-19T14:44:37.501Z,98896.16
2023-05-19T14:47:04.292Z,98900.19
2023-05-19T14:49:30.810Z,98898.75
2023-05-19T14:51:58.322Z,98901.97
2023-05-19T14:54:24.899Z,98904.53
2023-05-19T14:56:51.634Z,98909.38
2023-05-19T14:59:18.091Z,98905.69
2023-05-19T15:01:44.782Z,98906.63
2023-05-19T15:04:11.533Z,98911.28
2023-05-19T15:06:38.588Z,98910.50
2023-05-19T15:09:05.455Z,98900.69
2023-05-19T15:11:33.834Z,98891.66
2023-05-19T15:14:02.827Z,98897.00
2023-05-19T15:16:29.498Z,98891.34
2023-05-19T15:18:56.162Z,98891.19
2023-05-19T15:21:22.673Z,98883.97
2023-05-19T15:23:49.185Z,98888.31
2023-05-19T15:26:15.855Z,98885.59
2023-05-19T15:28:42.468Z,98886.06
2023-05-19T15:31:08.943Z,98887.19
2023-05-19T15:33:38.499Z,98884.78
2023-05-19T15:36:05.370Z,98861.13
2023-05-19T15:38:35.825Z,98870.28
2023-05-19T15:41:06.441Z,98877.22
2023-05-19T15:43:33.087Z,98875.44
2023-05-19T15:46:00.651Z,98872.53
2023-05-19T15:48:28.908Z,98871.88
2023-05-19T15:50:58.013Z,98870.75
2023-05-19T15:53:25.107Z,98869.16
2023-05-19T15:55:51.731Z,98866.75
2023-05-19T15:58:18.408Z,98869.63
2023-05-19T16:00:46.384Z,98867.22
2023-05-19T16:03:12.985Z,98862.38
2023-05-19T16:05:39.573Z,98855.78
2023-05-19T16:08:08.510Z,98843.72
2023-05-19T16:10:35.516Z,98850.66
2023-05-19T16:13:03.236Z,98843.09
2023-05-19T16:15:29.747Z,98842.09
2023-05-19T16:17:56.834Z,98838.91
2023-05-19T16:20:26.739Z,98823.59
2023-05-19T16:22:53.415Z,98831.31
2023-05-19T16:25:20.200Z,98824.38
2023-05-19T16:27:46.751Z,98819.88
2023-05-19T16:30:13.525Z,98819.22
2023-05-19T16:32:40.122Z,98821.00
2023-05-19T16:35:07.271Z,98828.25
2023-05-19T16:37:34.707Z,98820.97
2023-05-19T16:40:01.338Z,98821.44
2023-05-19T16:42:28.321Z,98826.78
2023-05-19T16:44:54.829Z,98817.47
2023-05-19T16:47:21.299Z,98819.06
2023-05-19T16:49:47.839Z,98814.56
2023-05-19T16:52:14.274Z,98813.75
2023-05-19T16:54:40.889Z,98817.44
2023-05-19T16:57:07.395Z,98807.41
2023-05-19T16:59:33.830Z,98799.28
2023-05-19T17:02:00.300Z,98800.66
2023-05-19T17:04:28.669Z,98806.22
2023-05-19T17:06:57.069Z,98806.75
2023-05-19T17:09:25.849Z,98803.56
2023-05-19T17:11:53.589Z,98809.88
2023-05-19T17:14:20.950Z,98809.03
2023-05-19T17:16:47.827Z,98799.16
2023-05-19T17:19:14.544Z,98801.16
2023-05-19T17:21:41.517Z,98789.53
2023-05-19T17:24:07.994Z,98799.28
2023-05-19T17:26:34.516Z,98793.53
2023-05-19T17:29:02.441Z,98795.03
2023-05-19T17:31:30.419Z,98794.16
2023-05-19T17:33:56.836Z,98794.66
2023-05-19T17:36:23.355Z,98793.75
2023-05-19T17:38:49.903Z,98788.00
2023-05-19T17:41:17.065Z,98797.06
2023-05-19T17:43:43.702Z,98782.53
2023-05-19T17:46:10.379Z,98783.50
2023-05-19T17:48:36.851Z,98791.13
2023-05-19T17:51:05.111Z,98788.28
2023-05-19T17:53:32.763Z,98792.28
2023-05-19T17:56:02.508Z,98792.66
2023-05-19T17:58:29.717Z,98793.78
2023-05-19T18:00:56.771Z,98792.38
2023-05-19T18:03:23.796Z,98792.22
2023-05-19T18:05:51.092Z,98791.44
2023-05-19T18:08:18.079Z,98794.19
2023-05-19T18:10:46.075Z,98791.13
2023-05-19T18:13:15.700Z,98793.06
2023-05-19T18:15:42.780Z,98790.78
2023-05-19T18:18:10.786Z,98789.19
2023-05-19T18:20:44.119Z,98796.75
2023-05-19T18:23:10.619Z,98790.31
2023-05-19T18:25:37.363Z,98794.78
2023-05-19T18:28:03.989Z,98791.38
2023-05-19T18:30:30.549Z,98784.13
2023-05-19T18:32:57.585Z,98784.00
2023-05-19T18:35:24.096Z,98773.53
2023-05-19T18:37:50.769Z,98771.75
2023-05-19T18:40:18.453Z,98772.53
2023-05-19T18:42:44.931Z,98775.41
2023-05-19T18:45:11.771Z,98780.25
2023-05-19T18:47:38.353Z,98773.78
2023-05-19T18:50:05.885Z,98773.94
2023-05-19T18:52:32.403Z,98763.78
2023-05-19T18:55:00.779Z,98776.28
2023-05-19T18:57:27.295Z,98771.28
2023-05-19T18:59:53.879Z,98775.59
2023-05-19T19:02:20.634Z,98781.97
2023-05-19T19:04:47.172Z,98768.19
2023-05-19T19:07:14.480Z,98767.19
2023-05-19T19:09:43.518Z,98772.47
2023-05-19T19:12:10.805Z,98775.81
2023-05-19T19:14:37.348Z,98781.28
2023-05-19T19:17:03.971Z,98778.06
2023-05-19T19:19:33.673Z,98780.78
2023-05-19T19:22:00.270Z,98779.47
2023-05-19T19:24:28.484Z,98785.25
2023-05-19T19:26:55.058Z,98789.09
2023-05-19T19:29:21.885Z,98788.78
2023-05-19T19:31:48.611Z,98791.19
2023-05-19T19:34:15.138Z,98792.81
2023-05-19T19:36:42.968Z,98792.19
2023-05-19T19:39:09.503Z,98798.13
2023-05-19T19:41:36.593Z,98796.53
2023-05-19T19:44:03.269Z,98784.47
2023-05-19T19:46:30.361Z,98793.00
2023-05-19T19:49:00.325Z,98795.22
2023-05-19T19:51:27.802Z,98788.16
2023-05-19T19:53:55.143Z,98789.91
2023-05-19T19:56:24.508Z,98783.75
2023-05-19T19:58:51.205Z,98780.53
2023-05-19T20:01:20.333Z,98780.84
2023-05-19T20:03:47.319Z,98792.06
2023-05-19T20:06:14.210Z,98789.34
2023-05-19T20:08:40.730Z,98791.56
2023-05-19T20:11:07.345Z,98787.84
2023-05-19T20:13:33.835Z,98787.84
2023-05-19T20:16:00.981Z,98783.81
2023-05-19T20:18:29.630Z,98782.84
2023-05-19T20:20:56.771Z,98791.31
2023-05-19T20:23:23.243Z,98786.69
2023-05-19T20:26:09.196Z,98784.25
2023-05-19T20:28:36.388Z,98788.41
2023-05-19T20:31:03.872Z,98788.09
2023-05-19T20:33:31.660Z,98779.91
2023-05-19T20:35:58.181Z,98779.13
2023-05-19T20:38:24.693Z,98775.09
2023-05-19T20:40:51.169Z,98778.44
2023-05-19T20:43:17.702Z,98781.69
2023-05-19T20:45:44.861Z,98781.69
2023-05-19T20:48:11.873Z,98780.56
2023-05-19T20:50:39.299Z,98782.47
2023-05-19T20:53:07.287Z,98792.59
2023-05-19T20:55:36.096Z,98783.09
2023-05-19T20:58:02.753Z,98786.13
2023-05-19T21:00:30.618Z,98782.91
2023-05-19T21:02:57.486Z,98781.91
2023-05-19T21:05:24.276Z,98787.38
2023-05-19T21:07:50.846Z,98778.38
2023-05-19T21:10:17.871Z,98779.19
2023-05-19T21:12:44.420Z,98777.56
2023-05-19T21:15:11.464Z,98769.41
2023-05-19T21:17:38.108Z,98771.13
2023-05-19T21:20:05.619Z,98778.50
2023-05-19T21:22:32.138Z,98776.88
2023-05-19T21:24:58.578Z,98770.63
2023-05-19T21:27:25.141Z,98768.41
2023-05-19T21:29:54.439Z,98768.41
2023-05-19T21:32:21.408Z,98762.13
2023-05-19T21:34:47.982Z,98764.38
2023-05-19T21:37:16.302Z,98760.38
2023-05-19T21:39:43.277Z,98762.78
2023-05-19T21:42:09.728Z,98753.78
2023-05-19T21:44:36.349Z,98757.91
2023-05-19T21:47:02.958Z,98750.69
2023-05-19T21:49:29.789Z,98758.66
2023-05-19T21:51:56.391Z,98752.03
2023-05-19T21:54:22.890Z,98755.41
2023-05-19T21:56:49.687Z,98748.13
2023-05-19T21:59:16.156Z,98743.75
2023-05-19T22:01:42.707Z,98745.06
2023-05-19T22:04:10.205Z,98741.97
2023-05-19T22:06:37.001Z,98740.16
2023-05-19T22:09:04.346Z,98734.53
2023-05-19T22:11:30.859Z,98739.78
2023-05-19T22:13:57.337Z,98741.50
2023-05-19T22:16:23.989Z,98737.56
2023-05-19T22:18:50.571Z,98736.59
2023-05-19T22:21:17.076Z,98729.28
2023-05-19T22:23:43.972Z,98736.16
2023-05-19T22:26:10.527Z,98739.00
2023-05-19T22:28:36.947Z,98727.59
2023-05-19T22:31:03.464Z,98732.13
2023-05-19T22:33:29.904Z,98737.09
2023-05-19T22:35:56.386Z,98734.97
2023-05-19T22:38:22.793Z,98741.31
2023-05-19T22:40:49.954Z,98731.84
2023-05-19T22:43:16.421Z,98735.47
2023-05-19T22:45:43.026Z,98738.28
2023-05-19T22:48:09.472Z,98732.13
2023-05-19T22:50:36.021Z,98736.78
2023-05-19T22:53:02.508Z,98733.78
2023-05-19T22:55:29.104Z,98727.22
2023-05-19T22:57:56.238Z,98729.72
2023-05-19T23:00:22.908Z,98726.00
2023-05-19T23:02:49.460Z,98729.53
2023-05-19T23:05:16.285Z,98723.28
2023-05-19T23:07:42.901Z,98719.56
2023-05-19T23:10:09.716Z,98720.44
2023-05-19T23:12:36.266Z,98717.84
2023-05-19T23:15:03.611Z,98715.41
2023-05-19T23:17:30.057Z,98714.59
2023-05-19T23:19:56.590Z,98717.31
2023-05-19T23:22:23.133Z,98714.00
2023-05-19T23:24:49.591Z,98713.41
2023-05-19T23:27:16.348Z,98719.38
2023-05-19T23:29:47.084Z,98707.88
2023-05-19T23:32:13.546Z,98713.81
2023-05-19T23:34:39.967Z,98702.94
2023-05-19T23:37:06.578Z,98705.66
2023-05-19T23:39:33.115Z,98706.75
2023-05-19T23:41:59.588Z,98704.03
2023-05-19T23:44:27.229Z,98699.81
2023-05-19T23:46:53.735Z,98699.91
2023-05-19T23:49:20.385Z,98697.28
2023-05-19T23:51:47.160Z,98693.06
2023-05-19T23:54:13.609Z,98694.25
2023-05-19T23:56:40.077Z,98691.03
2023-05-19T23:59:06.587Z,98691.63
